Friday, November 16, 2018, 1:12 AM GMT
Back to Local

CYHM, Hamilton Airport

Location: , , Canada Lat: 43.167
Local Time: 1:12 AM GMT ( 1:12 GMT) Lon: -79.933
Time Zone: GMT Elev: 777 ft

Show me the last for .
Show Coded

Time T Td Feel RH Dir Speed Gust Alt SLP Vis Weather Sky Remarks
2018-11-16 00:36 28 28 16 100 60° 12 18 29.97 30.01 2 -SN OVC006 None
2018-11-16 00:00 28 28 19 100 70° 10 - 29.99 30.02 2 -SN OVC004 None
2018-11-15 23:47 28 28 18 100 60° 12 - 30.00 30.03 2 -SN OVC004 None
2018-11-15 23:00 28 28 18 100 60° 13 - 30.01 30.05 1 -SN BKN005 OVC028 None
2018-11-15 22:00 28 27 18 92 70° 13 - 30.04 30.08 1 -SN BKN004 OVC028 None
2018-11-15 21:45 28 27 17 92 60° 14 - 30.05 30.09 0 -SN OVC004 None
2018-11-15 21:00 28 27 18 92 60° 13 - 30.07 30.11 0 -SN OVC004 None
2018-11-15 20:14 28 27 18 92 60° 13 - 30.08 30.12 0 -SN OVC004 Pressure falling rapidly
2018-11-15 20:00 28 27 18 92 60° 12 - 30.10 30.14 0 -SN VV015 Pressure falling rapidly
2018-11-15 19:23 28 25 20 86 80° 9 - 30.14 30.18 0 -SN VV015 None
2018-11-15 19:18 30 23 21 74 80° 10 - 30.14 30.18 0 -SN OVC032 None
2018-11-15 19:15 30 23 22 74 80° 9 - 30.14 30.18 1 -SN OVC032 None
2018-11-15 19:11 30 23 22 74 80° 9 - 30.14 30.18 1 -SN BKN032 OVC046 None
2018-11-15 19:00 30 21 22 68 70° 9 - 30.14 30.18 15 -SN SCT032 BKN046 OVC077 None
2018-11-15 18:00 30 21 21 68 70° 10 - 30.16 30.20 15 FEW085 OVC100 None
2018-11-15 17:00 30 21 21 68 70° 10 - 30.21 30.25 15 OVC100 None
2018-11-15 16:00 28 19 18 68 90° 12 - 30.26 30.29 15 FEW030 OVC110 None
2018-11-15 15:00 28 19 20 68 90° 9 - 30.29 30.33 15 FEW020 OVC120 None
2018-11-15 14:00 27 19 16 73 80° 13 - 30.32 30.36 15 FEW020 BKN140 OVC190 None
2018-11-15 13:00 27 19 16 73 80° 12 - 30.33 30.37 15 FEW020 BKN180 OVC230 Pressure falling rapidly
2018-11-15 12:00 25 19 14 79 70° 12 - 30.36 30.40 15 BKN190 OVC230 None
2018-11-15 11:00 25 21 15 85 70° 10 - 30.37 30.41 15 OVC240 None
2018-11-15 10:00 25 19 15 79 70° 10 - 30.39 30.42 15 OVC240 None
2018-11-15 09:00 25 19 15 79 80° 10 - 30.42 30.46 15 FEW028 OVC250 None
2018-11-15 08:00 25 19 15 79 90° 10 - 30.46 30.50 15 SCT033 OVC250 None
2018-11-15 07:00 25 19 14 79 90° 12 - 30.46 30.50 15 -SN FEW025 BKN250 None
2018-11-15 06:00 27 21 16 79 90° 13 - 30.48 30.52 15 BKN023 None
2018-11-15 05:34 27 21 17 79 70° 10 - 30.49 30.53 15 OVC020 None
2018-11-15 05:00 25 19 15 79 40° 9 - 30.49 30.53 15 -SN OVC022 None
2018-11-15 04:00 27 19 17 73 40° 10 - 30.50 30.54 15 OVC020 None
2018-11-15 03:00 27 19 17 73 40° 9 - 30.50 30.54 15 OVC019 None
2018-11-15 02:00 25 19 16 79 30° 8 - 30.52 30.56 15 OVC038 None

Support USWX by starting your Amazon purchase here.